createdAt,value
2022-11-30T00:03:16.945Z,2.00
2022-11-30T00:08:18.231Z,2.06
2022-11-30T00:13:26.198Z,1.96
2022-11-30T00:18:27.691Z,1.72
2022-11-30T00:23:37.147Z,1.53
2022-11-30T00:28:39.378Z,1.40
2022-11-30T00:33:41.108Z,1.33
2022-11-30T00:38:43.093Z,1.26
2022-11-30T00:43:44.804Z,1.13
2022-11-30T00:48:46.107Z,1.10
2022-11-30T00:53:47.795Z,1.18
2022-11-30T00:58:48.999Z,1.32
2022-11-30T01:03:52.638Z,1.41
2022-11-30T01:08:54.146Z,1.41
2022-11-30T01:13:57.358Z,1.35
2022-11-30T01:18:59.230Z,1.35
2022-11-30T01:24:00.400Z,1.39
2022-11-30T01:29:02.176Z,1.48
2022-11-30T01:34:03.741Z,1.61
2022-11-30T01:39:08.837Z,1.67
2022-11-30T01:44:19.765Z,1.73
2022-11-30T01:49:38.859Z,1.78
2022-11-30T01:54:59.277Z,1.70
2022-11-30T02:00:03.625Z,1.74
2022-11-30T02:05:17.568Z,1.81
2022-11-30T02:10:24.223Z,1.83
2022-11-30T02:15:31.474Z,1.88
2022-11-30T02:20:59.143Z,1.87
2022-11-30T02:26:09.208Z,1.68
2022-11-30T02:31:16.275Z,1.60
2022-11-30T02:36:19.629Z,1.57
2022-11-30T02:41:20.835Z,1.48
2022-11-30T02:46:29.735Z,1.44
2022-11-30T02:51:33.387Z,1.58
2022-11-30T02:56:34.720Z,1.72
2022-11-30T03:01:36.796Z,1.76
2022-11-30T03:06:38.017Z,1.75
2022-11-30T03:11:39.219Z,1.74
2022-11-30T03:16:40.435Z,1.75
2022-11-30T03:21:41.548Z,1.80
2022-11-30T03:26:42.697Z,1.76
2022-11-30T03:31:43.972Z,1.64
2022-11-30T03:36:45.120Z,1.57
2022-11-30T03:41:46.492Z,1.56
2022-11-30T03:46:47.799Z,1.48
2022-11-30T03:51:49.080Z,1.40
2022-11-30T03:56:50.243Z,1.36
2022-11-30T04:01:51.479Z,1.38
2022-11-30T04:06:52.699Z,1.43
2022-11-30T04:11:53.844Z,1.43
2022-11-30T04:16:55.119Z,1.51
2022-11-30T04:21:56.287Z,1.59
2022-11-30T04:26:57.546Z,1.61
2022-11-30T04:31:59.104Z,1.60
2022-11-30T04:37:00.668Z,1.44
2022-11-30T04:42:01.950Z,1.27
2022-11-30T04:47:03.213Z,1.21
2022-11-30T04:52:04.356Z,1.21
2022-11-30T04:57:05.930Z,1.17
2022-11-30T05:02:07.315Z,1.22
2022-11-30T05:07:08.885Z,1.25
2022-11-30T05:12:10.041Z,1.26
2022-11-30T05:17:11.204Z,1.35
2022-11-30T05:22:12.321Z,1.42
2022-11-30T05:27:16.717Z,1.43
2022-11-30T05:32:22.259Z,1.34
2022-11-30T05:37:23.419Z,1.26
2022-11-30T05:42:25.021Z,1.27
2022-11-30T05:47:26.143Z,1.35
2022-11-30T05:52:27.311Z,1.39
2022-11-30T05:57:28.472Z,1.31
2022-11-30T06:02:29.934Z,1.17
2022-11-30T06:07:31.250Z,1.18
2022-11-30T06:12:32.473Z,1.15
2022-11-30T06:17:33.829Z,1.11
2022-11-30T06:22:34.957Z,1.17
2022-11-30T06:27:36.146Z,1.26
2022-11-30T06:32:37.307Z,1.39
2022-11-30T06:37:38.539Z,1.50
2022-11-30T06:42:39.740Z,1.65
2022-11-30T06:47:41.098Z,1.80
2022-11-30T06:52:42.185Z,1.87
2022-11-30T06:57:43.717Z,1.89
2022-11-30T07:02:44.909Z,1.95
2022-11-30T07:07:46.009Z,2.02
2022-11-30T07:12:47.421Z,2.04
2022-11-30T07:17:48.475Z,2.04
2022-11-30T07:22:49.842Z,2.02
2022-11-30T07:27:50.936Z,2.02
2022-11-30T07:32:52.056Z,2.02
2022-11-30T07:37:53.113Z,1.97
2022-11-30T07:42:55.203Z,1.76
2022-11-30T07:47:58.406Z,1.56
2022-11-30T07:52:59.563Z,1.47
2022-11-30T07:58:00.657Z,1.33
2022-11-30T08:03:02.092Z,1.37
2022-11-30T08:08:03.604Z,1.43
2022-11-30T08:13:04.762Z,1.47
2022-11-30T08:18:06.602Z,1.40
2022-11-30T08:23:07.711Z,1.30
2022-11-30T08:28:09.016Z,1.29
2022-11-30T08:33:10.283Z,1.21
2022-11-30T08:38:11.556Z,1.19
2022-11-30T08:43:12.610Z,1.28
2022-11-30T08:48:13.665Z,1.38
2022-11-30T08:53:14.928Z,1.64
2022-11-30T08:58:16.295Z,1.86
2022-11-30T09:03:17.455Z,2.08
2022-11-30T09:08:19.173Z,2.28
2022-11-30T09:13:20.290Z,2.46
2022-11-30T09:18:21.552Z,2.61
2022-11-30T09:23:22.625Z,2.72
2022-11-30T09:28:24.533Z,2.75
2022-11-30T09:33:25.626Z,2.74
2022-11-30T09:38:27.561Z,2.69
2022-11-30T09:43:37.693Z,2.57
2022-11-30T09:49:01.484Z,2.29
2022-11-30T09:54:09.196Z,2.26
2022-11-30T09:59:19.365Z,2.42
2022-11-30T10:04:24.637Z,2.54
2022-11-30T10:09:34.793Z,2.58
2022-11-30T10:15:03.752Z,2.66
2022-11-30T10:20:27.861Z,2.75
2022-11-30T10:25:39.921Z,2.89
2022-11-30T10:30:41.087Z,3.00
2022-11-30T10:35:53.971Z,3.08
2022-11-30T10:41:09.647Z,3.12
2022-11-30T10:46:23.285Z,3.11
2022-11-30T10:51:26.534Z,2.93
2022-11-30T10:56:27.739Z,2.82
2022-11-30T11:01:33.548Z,2.87
2022-11-30T11:06:36.091Z,2.95
2022-11-30T11:11:38.909Z,3.23
2022-11-30T11:16:52.969Z,3.39
2022-11-30T11:21:54.165Z,3.36
2022-11-30T11:26:56.538Z,3.35
2022-11-30T11:32:06.890Z,3.37
2022-11-30T11:37:19.724Z,3.58
2022-11-30T11:42:22.505Z,3.79
2022-11-30T11:47:28.287Z,3.88
2022-11-30T11:52:29.455Z,3.94
2022-11-30T11:57:47.920Z,4.02
2022-11-30T12:02:56.782Z,4.05
2022-11-30T12:08:28.419Z,4.20
2022-11-30T12:13:37.278Z,4.38
2022-11-30T12:19:17.383Z,4.46
2022-11-30T12:25:08.639Z,4.50
2022-11-30T12:30:21.604Z,4.54
2022-11-30T12:35:56.477Z,4.60
2022-11-30T12:41:16.411Z,4.66
2022-11-30T12:46:28.822Z,4.62
2022-11-30T12:51:53.734Z,4.57
2022-11-30T12:57:00.926Z,4.46
2022-11-30T13:02:33.234Z,4.28
2022-11-30T13:07:44.578Z,4.20
2022-11-30T13:12:50.609Z,4.13
2022-11-30T13:17:53.569Z,4.10
2022-11-30T13:23:07.748Z,4.12
2022-11-30T13:28:38.607Z,4.12
2022-11-30T13:33:48.478Z,3.92
2022-11-30T13:39:09.193Z,3.52
2022-11-30T13:44:32.378Z,3.24
2022-11-30T13:49:36.087Z,3.01
2022-11-30T13:54:44.215Z,3.00
2022-11-30T13:59:48.874Z,3.15
2022-11-30T14:04:50.215Z,3.08
2022-11-30T14:09:57.639Z,2.83
2022-11-30T14:15:00.559Z,2.48
2022-11-30T14:20:18.479Z,2.16
2022-11-30T14:25:20.671Z,1.96
2022-11-30T14:30:23.596Z,1.99
2022-11-30T14:35:29.635Z,2.05
2022-11-30T14:40:31.266Z,2.09
2022-11-30T14:45:34.420Z,2.08
2022-11-30T14:50:37.539Z,1.95
2022-11-30T14:56:19.496Z,1.86
2022-11-30T15:01:24.456Z,1.70
2022-11-30T15:06:31.595Z,1.62
2022-11-30T15:11:32.756Z,1.61
2022-11-30T15:16:34.171Z,1.57
2022-11-30T15:21:35.390Z,1.49
2022-11-30T15:26:57.331Z,1.42
2022-11-30T15:32:01.319Z,1.41
2022-11-30T15:37:02.879Z,1.46
2022-11-30T15:42:05.216Z,1.63
2022-11-30T15:47:23.584Z,1.71
2022-11-30T15:52:27.625Z,1.67
2022-11-30T15:57:58.772Z,1.70
2022-11-30T16:03:08.300Z,1.59
2022-11-30T16:08:17.558Z,1.51
2022-11-30T16:13:21.262Z,1.48
2022-11-30T16:18:25.685Z,1.59
2022-11-30T16:23:27.894Z,1.68
2022-11-30T16:28:28.960Z,1.77
2022-11-30T16:33:30.144Z,1.85
2022-11-30T16:38:32.231Z,2.00
2022-11-30T16:43:33.279Z,2.02
2022-11-30T16:48:35.260Z,2.04
2022-11-30T16:53:36.422Z,2.09
2022-11-30T16:58:37.587Z,2.07
2022-11-30T17:03:39.562Z,2.01
2022-11-30T17:08:41.356Z,1.95
2022-11-30T17:13:42.427Z,1.79
2022-11-30T17:18:43.959Z,1.74
2022-11-30T17:23:45.243Z,1.74
2022-11-30T17:28:46.372Z,1.67
2022-11-30T17:33:48.597Z,1.57
2022-11-30T17:38:50.143Z,1.50
2022-11-30T17:43:51.712Z,1.56
2022-11-30T17:48:54.311Z,1.64
2022-11-30T17:53:56.079Z,1.70
2022-11-30T17:58:58.956Z,1.80
2022-11-30T18:04:00.290Z,1.82
2022-11-30T18:09:01.421Z,1.92
2022-11-30T18:14:03.385Z,2.03
2022-11-30T18:19:11.506Z,2.03
2022-11-30T18:24:12.980Z,1.99
2022-11-30T18:29:14.046Z,2.02
2022-11-30T18:34:15.151Z,2.11
2022-11-30T18:39:16.352Z,2.07
2022-11-30T18:44:17.515Z,2.04
2022-11-30T18:49:20.567Z,1.93
2022-11-30T18:54:21.883Z,1.69
2022-11-30T18:59:22.979Z,1.52
2022-11-30T19:04:25.330Z,1.57
2022-11-30T19:09:26.529Z,1.73
2022-11-30T19:14:27.635Z,1.81
2022-11-30T19:19:28.766Z,1.80
2022-11-30T19:24:29.841Z,1.78
2022-11-30T19:29:30.904Z,1.74
2022-11-30T19:34:32.088Z,1.79
2022-11-30T19:39:33.247Z,1.77
2022-11-30T19:44:34.511Z,1.88
2022-11-30T19:49:35.671Z,1.93
2022-11-30T19:54:36.943Z,1.91
2022-11-30T19:59:38.087Z,1.81
2022-11-30T20:04:39.468Z,1.86
2022-11-30T20:09:40.576Z,1.98
2022-11-30T20:14:41.678Z,1.99
2022-11-30T20:19:42.943Z,2.05
2022-11-30T20:24:44.104Z,2.13
2022-11-30T20:29:55.095Z,2.18
2022-11-30T20:34:56.150Z,2.27
2022-11-30T20:39:57.412Z,2.32
2022-11-30T20:44:59.296Z,2.31
2022-11-30T20:50:00.962Z,2.30
2022-11-30T20:55:02.124Z,2.29
2022-11-30T21:00:06.497Z,2.27
2022-11-30T21:05:11.512Z,2.20
2022-11-30T21:10:12.983Z,2.33
2022-11-30T21:15:14.140Z,2.41
2022-11-30T21:20:15.406Z,2.49
2022-11-30T21:25:17.076Z,2.49
2022-11-30T21:30:18.949Z,2.46
2022-11-30T21:35:20.112Z,2.42
2022-11-30T21:40:21.162Z,2.38
2022-11-30T21:45:22.433Z,2.38
2022-11-30T21:50:27.174Z,2.29
2022-11-30T21:55:28.548Z,2.34
2022-11-30T22:00:29.706Z,2.37
2022-11-30T22:05:30.869Z,2.45
2022-11-30T22:10:32.080Z,2.53
2022-11-30T22:15:33.347Z,2.58
2022-11-30T22:20:34.443Z,2.62
2022-11-30T22:25:35.610Z,2.59
2022-11-30T22:30:36.872Z,2.60
2022-11-30T22:35:38.082Z,2.66
2022-11-30T22:40:39.151Z,2.74
2022-11-30T22:45:40.256Z,2.80
2022-11-30T22:50:41.429Z,2.82
2022-11-30T22:55:47.818Z,2.82
2022-11-30T23:00:49.628Z,2.78
2022-11-30T23:05:51.047Z,2.77
2022-11-30T23:10:56.865Z,2.78
2022-11-30T23:15:59.262Z,2.83
2022-11-30T23:21:06.879Z,2.79
2022-11-30T23:26:12.909Z,2.72
2022-11-30T23:31:33.982Z,2.71
2022-11-30T23:36:37.423Z,2.58
2022-11-30T23:41:39.406Z,2.45
2022-11-30T23:46:41.011Z,2.48
2022-11-30T23:51:42.571Z,2.55
2022-11-30T23:56:43.683Z,2.59
